sensor_id;sensor_type;location;lat;lon;timestamp;temperature;humidity
22430;DHT22;11382;48.086;11.632;2022-09-09T00:00:20;14.50;99.90
22430;DHT22;11382;48.086;11.632;2022-09-09T00:02:55;14.50;99.90
22430;DHT22;11382;48.086;11.632;2022-09-09T00:05:31;14.50;99.90
22430;DHT22;11382;48.086;11.632;2022-09-09T00:08:02;14.40;99.90
22430;DHT22;11382;48.086;11.632;2022-09-09T00:10:34;14.20;99.90
22430;DHT22;11382;48.086;11.632;2022-09-09T00:13:14;14.20;99.90
22430;DHT22;11382;48.086;11.632;2022-09-09T00:15:54;14.20;99.90
22430;DHT22;11382;48.086;11.632;2022-09-09T00:18:31;14.20;99.90
22430;DHT22;11382;48.086;11.632;2022-09-09T00:21:08;14.20;99.90
22430;DHT22;11382;48.086;11.632;2022-09-09T00:23:40;14.20;99.90
22430;DHT22;11382;48.086;11.632;2022-09-09T00:26:22;14.20;99.90
22430;DHT22;11382;48.086;11.632;2022-09-09T00:29:03;14.10;99.90
22430;DHT22;11382;48.086;11.632;2022-09-09T00:31:33;14.20;99.90
22430;DHT22;11382;48.086;11.632;2022-09-09T00:34:08;14.20;99.90
22430;DHT22;11382;48.086;11.632;2022-09-09T00:36:41;14.20;99.90
22430;DHT22;11382;48.086;11.632;2022-09-09T00:39:19;14.40;99.90
22430;DHT22;11382;48.086;11.632;2022-09-09T00:41:58;14.40;99.90
22430;DHT22;11382;48.086;11.632;2022-09-09T00:44:32;14.40;99.90
22430;DHT22;11382;48.086;11.632;2022-09-09T00:47:12;14.50;99.90
22430;DHT22;11382;48.086;11.632;2022-09-09T00:49:56;14.40;99.90
22430;DHT22;11382;48.086;11.632;2022-09-09T00:52:38;14.40;99.90
22430;DHT22;11382;48.086;11.632;2022-09-09T00:55:13;14.40;99.90
22430;DHT22;11382;48.086;11.632;2022-09-09T00:57:46;14.50;99.90
22430;DHT22;11382;48.086;11.632;2022-09-09T01:00:22;14.50;99.90
22430;DHT22;11382;48.086;11.632;2022-09-09T01:02:59;14.50;99.90
22430;DHT22;11382;48.086;11.632;2022-09-09T01:05:36;14.50;99.90
22430;DHT22;11382;48.086;11.632;2022-09-09T01:08:18;14.50;99.90
22430;DHT22;11382;48.086;11.632;2022-09-09T01:10:50;14.40;99.90
22430;DHT22;11382;48.086;11.632;2022-09-09T01:13:25;14.30;99.90
22430;DHT22;11382;48.086;11.632;2022-09-09T01:15:54;14.30;99.90
22430;DHT22;11382;48.086;11.632;2022-09-09T01:18:32;14.30;99.90
22430;DHT22;11382;48.086;11.632;2022-09-09T01:21:09;14.20;99.90
22430;DHT22;11382;48.086;11.632;2022-09-09T01:24:01;14.30;99.90
22430;DHT22;11382;48.086;11.632;2022-09-09T01:26:53;14.20;99.90
22430;DHT22;11382;48.086;11.632;2022-09-09T01:29:25;14.30;99.90
22430;DHT22;11382;48.086;11.632;2022-09-09T01:31:54;14.30;99.90
22430;DHT22;11382;48.086;11.632;2022-09-09T01:34:25;14.40;99.90
22430;DHT22;11382;48.086;11.632;2022-09-09T01:36:59;14.50;99.90
22430;DHT22;11382;48.086;11.632;2022-09-09T01:39:32;14.40;99.90
22430;DHT22;11382;48.086;11.632;2022-09-09T01:42:06;14.40;99.90
22430;DHT22;11382;48.086;11.632;2022-09-09T01:44:37;14.40;99.90
22430;DHT22;11382;48.086;11.632;2022-09-09T01:47:06;14.40;99.90
22430;DHT22;11382;48.086;11.632;2022-09-09T01:49:43;14.40;99.90
22430;DHT22;11382;48.086;11.632;2022-09-09T01:52:20;14.30;99.90
22430;DHT22;11382;48.086;11.632;2022-09-09T01:54:48;14.20;99.90
22430;DHT22;11382;48.086;11.632;2022-09-09T01:57:24;14.30;99.90
22430;DHT22;11382;48.086;11.632;2022-09-09T02:00:01;14.30;99.90
22430;DHT22;11382;48.086;11.632;2022-09-09T02:02:44;14.30;99.90
22430;DHT22;11382;48.086;11.632;2022-09-09T02:05:27;14.30;99.90
22430;DHT22;11382;48.086;11.632;2022-09-09T02:08:03;14.30;99.90
22430;DHT22;11382;48.086;11.632;2022-09-09T02:10:51;14.30;99.90
22430;DHT22;11382;48.086;11.632;2022-09-09T02:13:36;14.40;99.90
22430;DHT22;11382;48.086;11.632;2022-09-09T02:16:10;14.40;99.90
22430;DHT22;11382;48.086;11.632;2022-09-09T02:18:44;14.40;99.90
22430;DHT22;11382;48.086;11.632;2022-09-09T02:21:16;14.40;99.90
22430;DHT22;11382;48.086;11.632;2022-09-09T02:23:47;14.40;99.90
22430;DHT22;11382;48.086;11.632;2022-09-09T02:26:17;14.40;99.90
22430;DHT22;11382;48.086;11.632;2022-09-09T02:28:55;14.40;99.90
22430;DHT22;11382;48.086;11.632;2022-09-09T02:31:25;14.40;99.90
22430;DHT22;11382;48.086;11.632;2022-09-09T02:34:00;14.30;99.90
22430;DHT22;11382;48.086;11.632;2022-09-09T02:36:32;14.30;99.90
22430;DHT22;11382;48.086;11.632;2022-09-09T02:39:02;14.30;99.90
22430;DHT22;11382;48.086;11.632;2022-09-09T02:41:35;14.40;99.90
22430;DHT22;11382;48.086;11.632;2022-09-09T02:44:10;14.40;99.90
22430;DHT22;11382;48.086;11.632;2022-09-09T02:47:00;14.40;99.90
22430;DHT22;11382;48.086;11.632;2022-09-09T02:49:42;14.50;99.90
22430;DHT22;11382;48.086;11.632;2022-09-09T02:52:14;14.40;99.90
22430;DHT22;11382;48.086;11.632;2022-09-09T02:54:43;14.40;99.90
22430;DHT22;11382;48.086;11.632;2022-09-09T02:57:15;14.40;99.90
22430;DHT22;11382;48.086;11.632;2022-09-09T02:59:49;14.30;99.90
22430;DHT22;11382;48.086;11.632;2022-09-09T03:02:18;14.30;99.90
22430;DHT22;11382;48.086;11.632;2022-09-09T03:04:52;14.30;99.90
22430;DHT22;11382;48.086;11.632;2022-09-09T03:07:21;14.40;99.90
22430;DHT22;11382;48.086;11.632;2022-09-09T03:09:51;14.50;99.90
22430;DHT22;11382;48.086;11.632;2022-09-09T03:12:24;14.40;99.90
22430;DHT22;11382;48.086;11.632;2022-09-09T03:14:53;14.50;99.90
22430;DHT22;11382;48.086;11.632;2022-09-09T03:17:22;14.50;99.90
22430;DHT22;11382;48.086;11.632;2022-09-09T03:19:53;14.60;99.90
22430;DHT22;11382;48.086;11.632;2022-09-09T03:22:22;14.50;99.90
22430;DHT22;11382;48.086;11.632;2022-09-09T03:24:52;14.60;99.90
22430;DHT22;11382;48.086;11.632;2022-09-09T03:27:20;14.60;99.90
22430;DHT22;11382;48.086;11.632;2022-09-09T03:29:48;14.60;99.90
22430;DHT22;11382;48.086;11.632;2022-09-09T03:32:23;14.60;99.90
22430;DHT22;11382;48.086;11.632;2022-09-09T03:34:54;14.60;99.90
22430;DHT22;11382;48.086;11.632;2022-09-09T03:37:22;14.60;99.90
22430;DHT22;11382;48.086;11.632;2022-09-09T03:39:50;14.60;99.90
22430;DHT22;11382;48.086;11.632;2022-09-09T03:42:21;14.60;99.90
22430;DHT22;11382;48.086;11.632;2022-09-09T03:44:52;14.50;99.90
22430;DHT22;11382;48.086;11.632;2022-09-09T03:47:25;14.40;99.90
22430;DHT22;11382;48.086;11.632;2022-09-09T03:49:59;14.40;99.90
22430;DHT22;11382;48.086;11.632;2022-09-09T03:52:28;14.40;99.90
22430;DHT22;11382;48.086;11.632;2022-09-09T03:54:56;14.40;99.90
22430;DHT22;11382;48.086;11.632;2022-09-09T03:57:24;14.40;99.90
22430;DHT22;11382;48.086;11.632;2022-09-09T03:59:52;14.50;99.90
22430;DHT22;11382;48.086;11.632;2022-09-09T04:02:21;14.50;99.90
22430;DHT22;11382;48.086;11.632;2022-09-09T04:04:50;14.50;99.90
22430;DHT22;11382;48.086;11.632;2022-09-09T04:07:18;14.60;99.90
22430;DHT22;11382;48.086;11.632;2022-09-09T04:09:46;14.60;99.90
22430;DHT22;11382;48.086;11.632;2022-09-09T04:12:14;14.60;99.90
22430;DHT22;11382;48.086;11.632;2022-09-09T04:14:43;14.60;99.90
22430;DHT22;11382;48.086;11.632;2022-09-09T04:17:11;14.60;99.90
22430;DHT22;11382;48.086;11.632;2022-09-09T04:19:39;14.60;99.90
22430;DHT22;11382;48.086;11.632;2022-09-09T04:22:08;14.60;99.90
22430;DHT22;11382;48.086;11.632;2022-09-09T04:24:36;14.60;99.90
22430;DHT22;11382;48.086;11.632;2022-09-09T04:27:04;14.60;99.90
22430;DHT22;11382;48.086;11.632;2022-09-09T04:29:34;14.60;99.90
22430;DHT22;11382;48.086;11.632;2022-09-09T04:32:02;14.50;99.90
22430;DHT22;11382;48.086;11.632;2022-09-09T04:34:32;14.50;99.90
22430;DHT22;11382;48.086;11.632;2022-09-09T04:37:00;14.60;99.90
22430;DHT22;11382;48.086;11.632;2022-09-09T04:39:29;14.60;99.90
22430;DHT22;11382;48.086;11.632;2022-09-09T04:42:00;14.50;99.90
22430;DHT22;11382;48.086;11.632;2022-09-09T04:44:28;14.50;99.90
22430;DHT22;11382;48.086;11.632;2022-09-09T04:46:56;14.50;99.90
22430;DHT22;11382;48.086;11.632;2022-09-09T04:49:25;14.50;99.90
22430;DHT22;11382;48.086;11.632;2022-09-09T04:51:54;14.50;99.90
22430;DHT22;11382;48.086;11.632;2022-09-09T04:54:22;14.50;99.90
22430;DHT22;11382;48.086;11.632;2022-09-09T04:56:51;14.40;99.90
22430;DHT22;11382;48.086;11.632;2022-09-09T04:59:20;14.40;99.90
22430;DHT22;11382;48.086;11.632;2022-09-09T05:01:52;14.40;99.90
22430;DHT22;11382;48.086;11.632;2022-09-09T05:04:22;14.50;99.90
22430;DHT22;11382;48.086;11.632;2022-09-09T05:06:50;14.50;99.90
22430;DHT22;11382;48.086;11.632;2022-09-09T05:09:17;14.40;99.90
22430;DHT22;11382;48.086;11.632;2022-09-09T05:11:46;14.30;99.90
22430;DHT22;11382;48.086;11.632;2022-09-09T05:14:25;14.30;99.90
22430;DHT22;11382;48.086;11.632;2022-09-09T05:16:54;14.30;99.90
22430;DHT22;11382;48.086;11.632;2022-09-09T05:19:23;14.30;99.90
22430;DHT22;11382;48.086;11.632;2022-09-09T05:21:52;14.40;99.90
22430;DHT22;11382;48.086;11.632;2022-09-09T05:24:26;14.50;99.90
22430;DHT22;11382;48.086;11.632;2022-09-09T05:26:56;14.70;99.90
22430;DHT22;11382;48.086;11.632;2022-09-09T05:29:28;14.80;99.90
22430;DHT22;11382;48.086;11.632;2022-09-09T05:31:56;14.90;99.90
22430;DHT22;11382;48.086;11.632;2022-09-09T05:34:24;14.80;99.90
22430;DHT22;11382;48.086;11.632;2022-09-09T05:36:52;14.80;99.90
22430;DHT22;11382;48.086;11.632;2022-09-09T05:39:22;14.70;99.90
22430;DHT22;11382;48.086;11.632;2022-09-09T05:41:51;14.70;99.90
22430;DHT22;11382;48.086;11.632;2022-09-09T05:44:19;14.70;99.90
22430;DHT22;11382;48.086;11.632;2022-09-09T05:46:48;14.70;99.90
22430;DHT22;11382;48.086;11.632;2022-09-09T05:49:17;14.60;99.90
22430;DHT22;11382;48.086;11.632;2022-09-09T05:51:46;14.60;99.90
22430;DHT22;11382;48.086;11.632;2022-09-09T05:54:17;14.60;99.90
22430;DHT22;11382;48.086;11.632;2022-09-09T05:56:48;14.70;99.90
22430;DHT22;11382;48.086;11.632;2022-09-09T05:59:18;14.70;99.90
22430;DHT22;11382;48.086;11.632;2022-09-09T06:01:47;14.80;99.90
22430;DHT22;11382;48.086;11.632;2022-09-09T06:04:22;14.90;99.90
22430;DHT22;11382;48.086;11.632;2022-09-09T06:06:51;14.90;99.90
22430;DHT22;11382;48.086;11.632;2022-09-09T06:09:21;15.00;99.90
22430;DHT22;11382;48.086;11.632;2022-09-09T06:11:49;15.10;99.90
22430;DHT22;11382;48.086;11.632;2022-09-09T06:14:19;15.30;99.90
22430;DHT22;11382;48.086;11.632;2022-09-09T06:16:51;15.40;99.90
22430;DHT22;11382;48.086;11.632;2022-09-09T06:19:27;15.40;99.90
22430;DHT22;11382;48.086;11.632;2022-09-09T06:21:57;15.40;99.90
22430;DHT22;11382;48.086;11.632;2022-09-09T06:24:27;15.30;99.90
22430;DHT22;11382;48.086;11.632;2022-09-09T06:26:57;15.30;99.90
22430;DHT22;11382;48.086;11.632;2022-09-09T06:29:29;15.40;99.90
22430;DHT22;11382;48.086;11.632;2022-09-09T06:31:58;15.40;99.90
22430;DHT22;11382;48.086;11.632;2022-09-09T06:34:27;15.50;99.90
22430;DHT22;11382;48.086;11.632;2022-09-09T06:36:57;15.50;99.90
22430;DHT22;11382;48.086;11.632;2022-09-09T06:39:32;15.60;99.90
22430;DHT22;11382;48.086;11.632;2022-09-09T06:42:00;15.70;99.90
22430;DHT22;11382;48.086;11.632;2022-09-09T06:44:46;15.70;99.90
22430;DHT22;11382;48.086;11.632;2022-09-09T06:47:44;15.80;99.90
22430;DHT22;11382;48.086;11.632;2022-09-09T06:50:13;15.90;99.90
22430;DHT22;11382;48.086;11.632;2022-09-09T06:52:42;15.90;99.90
22430;DHT22;11382;48.086;11.632;2022-09-09T06:55:09;16.00;99.90
22430;DHT22;11382;48.086;11.632;2022-09-09T06:57:37;15.90;99.90
22430;DHT22;11382;48.086;11.632;2022-09-09T07:00:12;15.90;99.90
22430;DHT22;11382;48.086;11.632;2022-09-09T07:02:46;16.10;99.90
22430;DHT22;11382;48.086;11.632;2022-09-09T07:05:14;16.20;99.90
22430;DHT22;11382;48.086;11.632;2022-09-09T07:07:45;16.30;99.90
22430;DHT22;11382;48.086;11.632;2022-09-09T07:10:15;16.30;99.90
22430;DHT22;11382;48.086;11.632;2022-09-09T07:12:44;16.30;99.90
22430;DHT22;11382;48.086;11.632;2022-09-09T07:15:13;16.40;99.90
22430;DHT22;11382;48.086;11.632;2022-09-09T07:17:45;16.40;99.90
22430;DHT22;11382;48.086;11.632;2022-09-09T07:20:14;16.60;99.90
22430;DHT22;11382;48.086;11.632;2022-09-09T07:22:42;16.70;99.90
22430;DHT22;11382;48.086;11.632;2022-09-09T07:25:10;16.70;99.90
22430;DHT22;11382;48.086;11.632;2022-09-09T07:27:39;16.70;99.90
22430;DHT22;11382;48.086;11.632;2022-09-09T07:30:08;16.70;99.90
22430;DHT22;11382;48.086;11.632;2022-09-09T07:32:39;16.70;99.90
22430;DHT22;11382;48.086;11.632;2022-09-09T07:35:08;16.60;99.90
22430;DHT22;11382;48.086;11.632;2022-09-09T07:37:37;16.50;99.90
22430;DHT22;11382;48.086;11.632;2022-09-09T07:40:06;16.40;99.90
22430;DHT22;11382;48.086;11.632;2022-09-09T07:42:34;16.50;99.90
22430;DHT22;11382;48.086;11.632;2022-09-09T07:45:05;16.60;99.90
22430;DHT22;11382;48.086;11.632;2022-09-09T07:47:33;16.70;99.90
22430;DHT22;11382;48.086;11.632;2022-09-09T07:50:03;16.70;99.90
22430;DHT22;11382;48.086;11.632;2022-09-09T07:52:33;16.70;99.90
22430;DHT22;11382;48.086;11.632;2022-09-09T07:55:04;16.70;99.90
22430;DHT22;11382;48.086;11.632;2022-09-09T07:57:33;16.80;99.90
22430;DHT22;11382;48.086;11.632;2022-09-09T08:00:02;16.90;99.90
22430;DHT22;11382;48.086;11.632;2022-09-09T08:02:38;16.90;99.90
22430;DHT22;11382;48.086;11.632;2022-09-09T08:05:07;17.00;99.90
22430;DHT22;11382;48.086;11.632;2022-09-09T08:07:38;17.30;99.90
22430;DHT22;11382;48.086;11.632;2022-09-09T08:10:07;17.40;99.90
22430;DHT22;11382;48.086;11.632;2022-09-09T08:12:37;17.30;99.90
22430;DHT22;11382;48.086;11.632;2022-09-09T08:15:13;17.40;99.90
22430;DHT22;11382;48.086;11.632;2022-09-09T08:17:42;17.50;99.90
22430;DHT22;11382;48.086;11.632;2022-09-09T08:20:11;17.80;99.90
22430;DHT22;11382;48.086;11.632;2022-09-09T08:22:40;17.80;99.90
22430;DHT22;11382;48.086;11.632;2022-09-09T08:25:08;17.80;99.90
22430;DHT22;11382;48.086;11.632;2022-09-09T08:27:37;17.90;99.90
22430;DHT22;11382;48.086;11.632;2022-09-09T08:30:07;18.00;99.90
22430;DHT22;11382;48.086;11.632;2022-09-09T08:32:35;18.00;99.90
22430;DHT22;11382;48.086;11.632;2022-09-09T08:35:08;18.10;99.90
22430;DHT22;11382;48.086;11.632;2022-09-09T08:37:38;18.10;99.90
22430;DHT22;11382;48.086;11.632;2022-09-09T08:40:18;18.10;99.90
22430;DHT22;11382;48.086;11.632;2022-09-09T08:42:49;18.10;99.90
22430;DHT22;11382;48.086;11.632;2022-09-09T08:45:25;18.20;99.90
22430;DHT22;11382;48.086;11.632;2022-09-09T08:48:11;18.30;99.90
22430;DHT22;11382;48.086;11.632;2022-09-09T08:50:41;18.20;99.90
22430;DHT22;11382;48.086;11.632;2022-09-09T08:53:23;18.20;99.90
22430;DHT22;11382;48.086;11.632;2022-09-09T08:55:57;18.30;99.90
22430;DHT22;11382;48.086;11.632;2022-09-09T08:58:45;18.30;99.90
22430;DHT22;11382;48.086;11.632;2022-09-09T09:01:30;18.20;99.90
22430;DHT22;11382;48.086;11.632;2022-09-09T09:04:10;18.00;99.90
22430;DHT22;11382;48.086;11.632;2022-09-09T09:06:50;17.90;99.90
22430;DHT22;11382;48.086;11.632;2022-09-09T09:09:24;17.70;99.90
22430;DHT22;11382;48.086;11.632;2022-09-09T09:12:00;17.70;99.90
22430;DHT22;11382;48.086;11.632;2022-09-09T09:14:35;17.60;99.90
22430;DHT22;11382;48.086;11.632;2022-09-09T09:17:12;17.80;99.90
22430;DHT22;11382;48.086;11.632;2022-09-09T09:19:43;17.90;99.90
22430;DHT22;11382;48.086;11.632;2022-09-09T09:22:17;18.00;99.90
22430;DHT22;11382;48.086;11.632;2022-09-09T09:24:52;18.20;99.90
22430;DHT22;11382;48.086;11.632;2022-09-09T09:27:32;18.40;99.90
22430;DHT22;11382;48.086;11.632;2022-09-09T09:30:10;18.60;99.90
22430;DHT22;11382;48.086;11.632;2022-09-09T09:33:01;18.80;99.90
22430;DHT22;11382;48.086;11.632;2022-09-09T09:35:30;18.70;99.90
22430;DHT22;11382;48.086;11.632;2022-09-09T09:38:16;18.70;99.90
22430;DHT22;11382;48.086;11.632;2022-09-09T09:41:04;18.40;99.90
22430;DHT22;11382;48.086;11.632;2022-09-09T09:43:35;18.40;99.90
22430;DHT22;11382;48.086;11.632;2022-09-09T09:46:20;18.40;99.90
22430;DHT22;11382;48.086;11.632;2022-09-09T09:48:56;18.50;99.90
22430;DHT22;11382;48.086;11.632;2022-09-09T09:51:26;18.30;99.90
22430;DHT22;11382;48.086;11.632;2022-09-09T09:54:08;18.30;99.90
22430;DHT22;11382;48.086;11.632;2022-09-09T09:56:38;18.20;99.90
22430;DHT22;11382;48.086;11.632;2022-09-09T09:59:21;18.20;99.90
22430;DHT22;11382;48.086;11.632;2022-09-09T10:02:16;18.30;99.90
22430;DHT22;11382;48.086;11.632;2022-09-09T10:04:48;18.40;99.90
22430;DHT22;11382;48.086;11.632;2022-09-09T10:07:19;18.50;99.90
22430;DHT22;11382;48.086;11.632;2022-09-09T10:09:52;18.60;99.90
22430;DHT22;11382;48.086;11.632;2022-09-09T10:12:30;18.70;99.90
22430;DHT22;11382;48.086;11.632;2022-09-09T10:15:07;18.80;99.90
22430;DHT22;11382;48.086;11.632;2022-09-09T10:17:44;19.00;99.90
22430;DHT22;11382;48.086;11.632;2022-09-09T10:20:29;18.80;99.90
22430;DHT22;11382;48.086;11.632;2022-09-09T10:23:11;18.50;99.90
22430;DHT22;11382;48.086;11.632;2022-09-09T10:25:55;18.20;99.90
22430;DHT22;11382;48.086;11.632;2022-09-09T10:28:42;17.90;99.90
22430;DHT22;11382;48.086;11.632;2022-09-09T10:31:21;17.70;99.90
22430;DHT22;11382;48.086;11.632;2022-09-09T10:34:00;17.70;99.90
22430;DHT22;11382;48.086;11.632;2022-09-09T10:36:29;17.80;99.90
22430;DHT22;11382;48.086;11.632;2022-09-09T10:39:00;18.00;99.90
22430;DHT22;11382;48.086;11.632;2022-09-09T10:41:40;18.30;99.90
22430;DHT22;11382;48.086;11.632;2022-09-09T10:44:17;18.10;99.90
22430;DHT22;11382;48.086;11.632;2022-09-09T10:47:09;18.20;99.90
22430;DHT22;11382;48.086;11.632;2022-09-09T10:49:57;18.70;99.90
22430;DHT22;11382;48.086;11.632;2022-09-09T10:52:32;19.30;99.90
22430;DHT22;11382;48.086;11.632;2022-09-09T10:55:10;19.70;99.90
22430;DHT22;11382;48.086;11.632;2022-09-09T10:57:42;19.70;99.90
22430;DHT22;11382;48.086;11.632;2022-09-09T11:00:16;19.80;99.90
22430;DHT22;11382;48.086;11.632;2022-09-09T11:02:48;19.80;99.90
22430;DHT22;11382;48.086;11.632;2022-09-09T11:05:20;19.40;99.90
22430;DHT22;11382;48.086;11.632;2022-09-09T11:07:54;19.20;99.90
22430;DHT22;11382;48.086;11.632;2022-09-09T11:10:26;18.90;99.90
22430;DHT22;11382;48.086;11.632;2022-09-09T11:13:01;18.90;99.90
22430;DHT22;11382;48.086;11.632;2022-09-09T11:15:35;18.90;99.90
22430;DHT22;11382;48.086;11.632;2022-09-09T11:18:13;18.50;99.90
22430;DHT22;11382;48.086;11.632;2022-09-09T11:20:43;18.40;99.90
22430;DHT22;11382;48.086;11.632;2022-09-09T11:23:14;18.50;99.90
22430;DHT22;11382;48.086;11.632;2022-09-09T11:25:50;18.60;99.90
22430;DHT22;11382;48.086;11.632;2022-09-09T11:28:32;19.10;99.90
22430;DHT22;11382;48.086;11.632;2022-09-09T11:31:19;19.00;99.90
22430;DHT22;11382;48.086;11.632;2022-09-09T11:33:53;19.30;99.90
22430;DHT22;11382;48.086;11.632;2022-09-09T11:36:56;19.40;99.90
22430;DHT22;11382;48.086;11.632;2022-09-09T11:42:37;20.20;99.90
22430;DHT22;11382;48.086;11.632;2022-09-09T11:45:10;20.00;99.90
22430;DHT22;11382;48.086;11.632;2022-09-09T11:47:39;20.10;99.90
22430;DHT22;11382;48.086;11.632;2022-09-09T11:50:10;20.50;99.90
22430;DHT22;11382;48.086;11.632;2022-09-09T11:53:17;20.40;99.90
22430;DHT22;11382;48.086;11.632;2022-09-09T11:55:48;20.50;99.90
22430;DHT22;11382;48.086;11.632;2022-09-09T11:58:17;20.60;99.90
22430;DHT22;11382;48.086;11.632;2022-09-09T12:00:47;20.90;99.90
22430;DHT22;11382;48.086;11.632;2022-09-09T12:03:38;21.60;99.90
22430;DHT22;11382;48.086;11.632;2022-09-09T12:06:13;21.40;99.90
22430;DHT22;11382;48.086;11.632;2022-09-09T12:08:48;21.30;99.90
22430;DHT22;11382;48.086;11.632;2022-09-09T12:11:24;21.10;99.90
22430;DHT22;11382;48.086;11.632;2022-09-09T12:13:54;20.70;99.90
22430;DHT22;11382;48.086;11.632;2022-09-09T12:16:30;20.40;99.90
22430;DHT22;11382;48.086;11.632;2022-09-09T12:19:05;20.50;99.90
22430;DHT22;11382;48.086;11.632;2022-09-09T12:21:42;20.60;99.90
22430;DHT22;11382;48.086;11.632;2022-09-09T12:24:16;20.60;99.90
22430;DHT22;11382;48.086;11.632;2022-09-09T12:26:53;20.70;99.90
22430;DHT22;11382;48.086;11.632;2022-09-09T12:29:26;21.20;99.90
22430;DHT22;11382;48.086;11.632;2022-09-09T12:32:00;21.50;99.90
22430;DHT22;11382;48.086;11.632;2022-09-09T12:34:37;21.80;99.90
22430;DHT22;11382;48.086;11.632;2022-09-09T12:37:26;22.20;99.90
22430;DHT22;11382;48.086;11.632;2022-09-09T12:39:56;22.20;99.90
22430;DHT22;11382;48.086;11.632;2022-09-09T12:42:26;22.50;99.90
22430;DHT22;11382;48.086;11.632;2022-09-09T12:44:56;22.90;99.90
22430;DHT22;11382;48.086;11.632;2022-09-09T12:47:34;22.70;99.90
22430;DHT22;11382;48.086;11.632;2022-09-09T12:50:05;22.60;99.90
22430;DHT22;11382;48.086;11.632;2022-09-09T12:52:43;21.80;99.90
22430;DHT22;11382;48.086;11.632;2022-09-09T12:55:17;21.70;99.90
22430;DHT22;11382;48.086;11.632;2022-09-09T12:57:45;21.50;99.90
22430;DHT22;11382;48.086;11.632;2022-09-09T13:00:16;21.30;99.90
22430;DHT22;11382;48.086;11.632;2022-09-09T13:02:48;21.20;99.90
22430;DHT22;11382;48.086;11.632;2022-09-09T13:05:20;21.40;99.90
22430;DHT22;11382;48.086;11.632;2022-09-09T13:07:50;21.50;99.90
22430;DHT22;11382;48.086;11.632;2022-09-09T13:10:23;21.80;99.90
22430;DHT22;11382;48.086;11.632;2022-09-09T13:13:13;21.50;99.90
22430;DHT22;11382;48.086;11.632;2022-09-09T13:15:49;21.00;99.90
22430;DHT22;11382;48.086;11.632;2022-09-09T13:18:21;20.70;99.90
22430;DHT22;11382;48.086;11.632;2022-09-09T13:20:50;20.60;99.90
22430;DHT22;11382;48.086;11.632;2022-09-09T13:23:21;20.70;99.90
22430;DHT22;11382;48.086;11.632;2022-09-09T13:25:54;20.40;99.90
22430;DHT22;11382;48.086;11.632;2022-09-09T13:28:24;20.20;99.90
22430;DHT22;11382;48.086;11.632;2022-09-09T13:30:59;20.50;99.90
22430;DHT22;11382;48.086;11.632;2022-09-09T13:33:31;20.40;99.90
22430;DHT22;11382;48.086;11.632;2022-09-09T13:36:02;20.40;99.90
22430;DHT22;11382;48.086;11.632;2022-09-09T13:38:36;20.40;99.90
22430;DHT22;11382;48.086;11.632;2022-09-09T13:41:06;20.50;99.90
22430;DHT22;11382;48.086;11.632;2022-09-09T13:43:37;20.40;99.90
22430;DHT22;11382;48.086;11.632;2022-09-09T13:46:25;19.90;99.90
22430;DHT22;11382;48.086;11.632;2022-09-09T13:48:56;19.80;99.90
22430;DHT22;11382;48.086;11.632;2022-09-09T13:51:33;19.80;99.90
22430;DHT22;11382;48.086;11.632;2022-09-09T13:54:03;19.70;99.90
22430;DHT22;11382;48.086;11.632;2022-09-09T13:56:32;19.50;99.90
22430;DHT22;11382;48.086;11.632;2022-09-09T13:59:01;19.20;99.90
22430;DHT22;11382;48.086;11.632;2022-09-09T14:01:29;19.10;99.90
22430;DHT22;11382;48.086;11.632;2022-09-09T14:03:58;18.90;99.90
22430;DHT22;11382;48.086;11.632;2022-09-09T14:06:26;18.70;99.90
22430;DHT22;11382;48.086;11.632;2022-09-09T14:08:55;18.70;99.90
22430;DHT22;11382;48.086;11.632;2022-09-09T14:11:25;18.70;99.90
22430;DHT22;11382;48.086;11.632;2022-09-09T14:13:53;18.80;99.90
22430;DHT22;11382;48.086;11.632;2022-09-09T14:16:21;18.70;99.90
22430;DHT22;11382;48.086;11.632;2022-09-09T14:18:49;18.90;99.90
22430;DHT22;11382;48.086;11.632;2022-09-09T14:21:17;19.00;99.90
22430;DHT22;11382;48.086;11.632;2022-09-09T14:23:45;19.20;99.90
22430;DHT22;11382;48.086;11.632;2022-09-09T14:26:13;19.20;99.90
22430;DHT22;11382;48.086;11.632;2022-09-09T14:28:42;19.10;99.90
22430;DHT22;11382;48.086;11.632;2022-09-09T14:31:21;19.00;99.90
22430;DHT22;11382;48.086;11.632;2022-09-09T14:33:49;19.10;99.90
22430;DHT22;11382;48.086;11.632;2022-09-09T14:36:18;19.20;99.90
22430;DHT22;11382;48.086;11.632;2022-09-09T14:38:46;19.30;99.90
22430;DHT22;11382;48.086;11.632;2022-09-09T14:41:17;19.20;99.90
22430;DHT22;11382;48.086;11.632;2022-09-09T14:43:48;19.00;99.90
22430;DHT22;11382;48.086;11.632;2022-09-09T14:46:18;19.00;99.90
22430;DHT22;11382;48.086;11.632;2022-09-09T14:48:47;19.00;99.90
22430;DHT22;11382;48.086;11.632;2022-09-09T14:51:20;19.10;99.90
22430;DHT22;11382;48.086;11.632;2022-09-09T14:53:55;19.10;99.90
22430;DHT22;11382;48.086;11.632;2022-09-09T14:56:26;19.20;99.90
22430;DHT22;11382;48.086;11.632;2022-09-09T14:58:59;19.30;99.90
22430;DHT22;11382;48.086;11.632;2022-09-09T15:01:35;19.30;99.90
22430;DHT22;11382;48.086;11.632;2022-09-09T15:04:05;19.50;99.90
22430;DHT22;11382;48.086;11.632;2022-09-09T15:06:35;19.70;99.90
22430;DHT22;11382;48.086;11.632;2022-09-09T15:09:09;19.50;99.90
22430;DHT22;11382;48.086;11.632;2022-09-09T15:11:38;19.50;99.90
22430;DHT22;11382;48.086;11.632;2022-09-09T15:14:09;19.30;99.90
22430;DHT22;11382;48.086;11.632;2022-09-09T15:16:39;19.50;99.90
22430;DHT22;11382;48.086;11.632;2022-09-09T15:19:07;19.40;99.90
22430;DHT22;11382;48.086;11.632;2022-09-09T15:21:37;19.20;99.90
22430;DHT22;11382;48.086;11.632;2022-09-09T15:24:06;19.30;99.90
22430;DHT22;11382;48.086;11.632;2022-09-09T15:26:38;19.20;99.90
22430;DHT22;11382;48.086;11.632;2022-09-09T15:29:06;19.00;99.90
22430;DHT22;11382;48.086;11.632;2022-09-09T15:31:36;18.90;99.90
22430;DHT22;11382;48.086;11.632;2022-09-09T15:34:06;18.80;99.90
22430;DHT22;11382;48.086;11.632;2022-09-09T15:36:38;18.60;99.90
22430;DHT22;11382;48.086;11.632;2022-09-09T15:39:14;18.70;99.90
22430;DHT22;11382;48.086;11.632;2022-09-09T15:41:50;18.60;99.90
22430;DHT22;11382;48.086;11.632;2022-09-09T15:44:18;18.60;99.90
22430;DHT22;11382;48.086;11.632;2022-09-09T15:46:49;18.60;99.90
22430;DHT22;11382;48.086;11.632;2022-09-09T15:49:18;18.50;99.90
22430;DHT22;11382;48.086;11.632;2022-09-09T15:51:51;18.40;99.90
22430;DHT22;11382;48.086;11.632;2022-09-09T15:54:21;18.20;99.90